createdAt,value
2023-03-06T00:01:51.917Z,84.57
2023-03-06T00:04:19.257Z,84.09
2023-03-06T00:06:45.567Z,83.38
2023-03-06T00:09:11.979Z,83.55
2023-03-06T00:11:38.294Z,83.65
2023-03-06T00:14:04.596Z,83.12
2023-03-06T00:16:30.917Z,83.05
2023-03-06T00:18:57.209Z,83.40
2023-03-06T00:21:23.520Z,83.69
2023-03-06T00:23:49.817Z,83.68
2023-03-06T00:26:16.269Z,83.59
2023-03-06T00:28:42.631Z,83.08
2023-03-06T00:31:08.988Z,82.25
2023-03-06T00:33:35.333Z,82.27
2023-03-06T00:36:01.638Z,82.94
2023-03-06T00:38:31.612Z,83.50
2023-03-06T00:40:57.981Z,82.36
2023-03-06T00:43:24.309Z,82.23
2023-03-06T00:45:50.707Z,82.29
2023-03-06T00:48:17.053Z,82.12
2023-03-06T00:50:43.370Z,81.94
2023-03-06T00:53:11.157Z,82.09
2023-03-06T00:55:37.568Z,81.99
2023-03-06T00:58:03.890Z,81.84
2023-03-06T01:00:30.215Z,82.57
2023-03-06T01:02:56.584Z,82.69
2023-03-06T01:05:22.983Z,81.84
2023-03-06T01:07:49.289Z,81.41
2023-03-06T01:10:15.618Z,81.55
2023-03-06T01:12:41.976Z,81.86
2023-03-06T01:15:08.310Z,82.09
2023-03-06T01:17:34.642Z,81.43
2023-03-06T01:20:01.039Z,81.29
2023-03-06T01:22:27.362Z,81.50
2023-03-06T01:24:53.655Z,81.21
2023-03-06T01:27:19.951Z,82.03
2023-03-06T01:29:46.254Z,81.11
2023-03-06T01:32:12.586Z,80.76
2023-03-06T01:34:38.906Z,81.14
2023-03-06T01:37:05.209Z,80.66
2023-03-06T01:39:31.702Z,82.32
2023-03-06T01:41:58.023Z,81.92
2023-03-06T01:44:24.370Z,81.58
2023-03-06T01:46:50.685Z,81.21
2023-03-06T01:49:17.017Z,81.72
2023-03-06T01:51:43.342Z,81.06
2023-03-06T01:54:09.718Z,80.82
2023-03-06T01:56:36.087Z,81.00
2023-03-06T01:59:02.427Z,80.70
2023-03-06T02:01:28.845Z,82.11
2023-03-06T02:03:55.183Z,81.58
2023-03-06T02:06:22.027Z,81.14
2023-03-06T02:08:48.369Z,82.87
2023-03-06T02:11:14.729Z,82.46
2023-03-06T02:13:41.106Z,81.89
2023-03-06T02:16:08.784Z,81.72
2023-03-06T02:18:35.152Z,81.22
2023-03-06T02:21:01.489Z,81.02
2023-03-06T02:23:27.802Z,81.59
2023-03-06T02:25:54.107Z,81.38
2023-03-06T02:28:20.480Z,81.85
2023-03-06T02:30:47.083Z,81.64
2023-03-06T02:33:13.437Z,81.04
2023-03-06T02:35:39.769Z,81.74
2023-03-06T02:38:06.104Z,80.71
2023-03-06T02:40:32.425Z,80.23
2023-03-06T02:42:58.751Z,80.50
2023-03-06T02:45:25.111Z,82.24
2023-03-06T02:47:51.422Z,82.27
2023-03-06T02:50:17.731Z,81.89
2023-03-06T02:52:44.075Z,81.67
2023-03-06T02:55:10.392Z,81.08
2023-03-06T02:57:36.768Z,81.36
2023-03-06T03:00:03.162Z,82.35
2023-03-06T03:02:29.511Z,81.32
2023-03-06T03:04:55.906Z,82.18
2023-03-06T03:07:22.229Z,81.87
2023-03-06T03:09:48.610Z,81.79
2023-03-06T03:12:14.930Z,81.51
2023-03-06T03:14:41.227Z,81.94
2023-03-06T03:17:07.529Z,82.18
2023-03-06T03:19:33.873Z,82.50
2023-03-06T03:22:00.214Z,82.75
2023-03-06T03:24:26.592Z,82.45
2023-03-06T03:26:53.080Z,82.77
2023-03-06T03:29:19.397Z,82.55
2023-03-06T03:31:45.729Z,82.55
2023-03-06T03:34:12.051Z,82.72
2023-03-06T03:36:38.335Z,82.65
2023-03-06T03:39:04.654Z,83.04
2023-03-06T03:41:31.002Z,83.15
2023-03-06T03:43:57.333Z,82.73
2023-03-06T03:46:23.683Z,83.29
2023-03-06T03:48:50.048Z,83.31
2023-03-06T03:51:16.686Z,83.43
2023-03-06T03:53:43.051Z,83.15
2023-03-06T03:56:09.365Z,83.84
2023-03-06T03:58:35.667Z,82.91
2023-03-06T04:01:02.012Z,82.60
2023-03-06T04:03:28.325Z,83.07
2023-03-06T04:05:55.537Z,82.97
2023-03-06T04:08:21.896Z,82.74
2023-03-06T04:10:48.196Z,82.54
2023-03-06T04:13:14.569Z,82.35
2023-03-06T04:15:40.876Z,81.87
2023-03-06T04:18:07.196Z,82.59
2023-03-06T04:20:33.546Z,81.82
2023-03-06T04:22:59.893Z,82.29
2023-03-06T04:25:26.243Z,82.37
2023-03-06T04:27:52.601Z,81.65
2023-03-06T04:30:18.940Z,81.65
2023-03-06T04:32:45.321Z,81.58
2023-03-06T04:35:12.178Z,81.14
2023-03-06T04:37:38.505Z,81.73
2023-03-06T04:40:04.830Z,82.43
2023-03-06T04:42:31.393Z,81.52
2023-03-06T04:44:57.697Z,81.45
2023-03-06T04:47:24.089Z,81.66
2023-03-06T04:49:50.422Z,81.79
2023-03-06T04:52:16.754Z,80.96
2023-03-06T04:54:43.232Z,80.51
2023-03-06T04:57:09.596Z,80.58
2023-03-06T04:59:38.743Z,81.78
2023-03-06T05:02:05.506Z,81.87
2023-03-06T05:04:31.805Z,81.22
2023-03-06T05:06:58.118Z,81.59
2023-03-06T05:09:24.447Z,81.53
2023-03-06T05:11:50.771Z,81.12
2023-03-06T05:14:17.111Z,80.97
2023-03-06T05:16:43.558Z,80.47
2023-03-06T05:19:09.950Z,80.24
2023-03-06T05:21:36.269Z,80.32
2023-03-06T05:24:02.556Z,80.90
2023-03-06T05:26:28.910Z,80.86
2023-03-06T05:28:55.509Z,81.78
2023-03-06T05:31:21.840Z,81.89
2023-03-06T05:33:48.196Z,81.05
2023-03-06T05:36:14.534Z,81.18
2023-03-06T05:38:40.890Z,81.09
2023-03-06T05:41:07.198Z,80.85
2023-03-06T05:43:33.529Z,81.40
2023-03-06T05:45:59.858Z,81.10
2023-03-06T05:48:26.206Z,80.45
2023-03-06T05:50:52.514Z,81.67
2023-03-06T05:53:18.869Z,81.34
2023-03-06T05:55:45.249Z,80.71
2023-03-06T05:58:11.578Z,80.83
2023-03-06T06:00:37.937Z,80.40
2023-03-06T06:03:04.355Z,80.34
2023-03-06T06:05:30.715Z,80.59
2023-03-06T06:07:57.024Z,80.23
2023-03-06T06:10:23.323Z,80.28
2023-03-06T06:12:49.652Z,81.00
2023-03-06T06:15:15.984Z,80.10
2023-03-06T06:17:42.336Z,79.80
2023-03-06T06:20:08.666Z,79.93
2023-03-06T06:22:34.988Z,79.91
2023-03-06T06:25:01.295Z,79.12
2023-03-06T06:27:27.629Z,79.46
2023-03-06T06:29:53.956Z,78.86
2023-03-06T06:32:20.438Z,78.55
2023-03-06T06:34:46.806Z,78.82
2023-03-06T06:37:13.113Z,78.48
2023-03-06T06:39:39.456Z,78.25
2023-03-06T06:42:28.933Z,78.16
2023-03-06T06:44:52.401Z,78.29
2023-03-06T06:47:23.089Z,77.63
2023-03-06T06:49:51.116Z,77.98
2023-03-06T06:52:18.961Z,76.65
2023-03-06T06:54:45.353Z,76.58
2023-03-06T06:57:11.753Z,76.00
2023-03-06T06:59:38.064Z,77.11
2023-03-06T07:02:04.476Z,76.69
2023-03-06T07:04:30.798Z,77.36
2023-03-06T07:06:57.162Z,76.76
2023-03-06T07:09:23.783Z,76.28
2023-03-06T07:11:50.135Z,75.62
2023-03-06T07:14:16.525Z,75.25
2023-03-06T07:16:42.892Z,74.74
2023-03-06T07:19:09.261Z,74.35
2023-03-06T07:21:35.631Z,74.51
2023-03-06T07:24:01.937Z,74.11
2023-03-06T07:26:28.260Z,73.44
2023-03-06T07:28:55.068Z,73.98
2023-03-06T07:31:22.259Z,74.75
2023-03-06T07:33:48.638Z,74.17
2023-03-06T07:36:15.021Z,74.74
2023-03-06T07:38:41.399Z,75.10
2023-03-06T07:41:13.312Z,74.30
2023-03-06T07:43:39.635Z,72.79
2023-03-06T07:46:05.970Z,73.46
2023-03-06T07:48:32.362Z,73.35
2023-03-06T07:50:58.722Z,72.46
2023-03-06T07:53:26.026Z,72.59
2023-03-06T07:55:52.354Z,71.84
2023-03-06T07:58:18.676Z,71.54
2023-03-06T08:00:45.002Z,70.15
2023-03-06T08:03:11.425Z,70.88
2023-03-06T08:05:37.808Z,70.70
2023-03-06T08:08:04.148Z,71.22
2023-03-06T08:10:30.465Z,70.08
2023-03-06T08:12:56.835Z,70.67
2023-03-06T08:15:23.168Z,69.76
2023-03-06T08:17:49.527Z,69.61
2023-03-06T08:20:16.243Z,68.27
2023-03-06T08:22:42.657Z,68.04
2023-03-06T08:25:09.002Z,68.88
2023-03-06T08:27:35.323Z,68.47
2023-03-06T08:30:01.629Z,68.84
2023-03-06T08:32:28.136Z,68.86
2023-03-06T08:34:54.474Z,68.91
2023-03-06T08:37:20.888Z,69.17
2023-03-06T08:39:47.298Z,69.01
2023-03-06T08:42:14.536Z,68.02
2023-03-06T08:44:40.845Z,69.00
2023-03-06T08:47:07.353Z,68.09
2023-03-06T08:49:33.776Z,67.48
2023-03-06T08:52:00.156Z,68.12
2023-03-06T08:54:26.464Z,66.68
2023-03-06T08:56:53.258Z,68.42
2023-03-06T08:59:19.571Z,67.81
2023-03-06T09:01:46.745Z,66.31
2023-03-06T09:04:13.057Z,66.48
2023-03-06T09:06:39.446Z,68.30
2023-03-06T09:09:05.985Z,67.51
2023-03-06T09:11:32.354Z,68.39
2023-03-06T09:13:58.756Z,68.37
2023-03-06T09:16:25.218Z,67.30
2023-03-06T09:18:54.108Z,68.09
2023-03-06T09:21:20.454Z,68.13
2023-03-06T09:23:46.824Z,68.83
2023-03-06T09:26:13.142Z,70.40
2023-03-06T09:28:39.450Z,68.84
2023-03-06T09:31:05.790Z,69.50
2023-03-06T09:33:33.384Z,67.47
2023-03-06T09:35:59.834Z,68.53
2023-03-06T09:38:26.278Z,67.15
2023-03-06T09:40:52.645Z,67.38
2023-03-06T09:43:18.941Z,66.93
2023-03-06T09:45:45.284Z,66.48
2023-03-06T09:48:11.633Z,66.05
2023-03-06T09:50:37.975Z,65.27
2023-03-06T09:53:04.339Z,66.87
2023-03-06T09:55:30.678Z,65.14
2023-03-06T09:57:57.094Z,64.33
2023-03-06T10:00:23.415Z,63.98
2023-03-06T10:02:49.850Z,64.95
2023-03-06T10:05:16.301Z,64.27
2023-03-06T10:07:43.018Z,62.65
2023-03-06T10:10:09.341Z,64.61
2023-03-06T10:12:35.692Z,65.02
2023-03-06T10:15:02.021Z,63.91
2023-03-06T10:17:28.401Z,64.46
2023-03-06T10:19:54.724Z,63.69
2023-03-06T10:22:21.091Z,64.35
2023-03-06T10:24:47.415Z,63.91
2023-03-06T10:27:13.758Z,64.37
2023-03-06T10:29:41.058Z,63.49
2023-03-06T10:32:07.462Z,65.45
2023-03-06T10:34:33.853Z,66.11
2023-03-06T10:37:00.208Z,66.95
2023-03-06T10:39:28.441Z,67.02
2023-03-06T10:41:54.764Z,66.74
2023-03-06T10:44:21.754Z,66.34
2023-03-06T10:46:48.211Z,67.04
2023-03-06T10:49:14.533Z,66.58
2023-03-06T10:51:40.892Z,67.20
2023-03-06T10:54:07.206Z,67.61
2023-03-06T10:56:33.566Z,66.77
2023-03-06T10:58:59.878Z,67.30
2023-03-06T11:01:26.347Z,66.08
2023-03-06T11:03:54.186Z,67.04
2023-03-06T11:06:20.516Z,66.31
2023-03-06T11:08:46.821Z,66.48
2023-03-06T11:11:13.112Z,66.93
2023-03-06T11:13:39.432Z,66.82
2023-03-06T11:16:05.902Z,66.40
2023-03-06T11:18:35.166Z,67.34
2023-03-06T11:21:01.471Z,68.56
2023-03-06T11:23:27.792Z,68.58
2023-03-06T11:25:54.111Z,69.36
2023-03-06T11:28:20.429Z,69.93
2023-03-06T11:30:46.875Z,70.63
2023-03-06T11:33:13.213Z,71.43
2023-03-06T11:35:39.610Z,73.20
2023-03-06T11:38:07.040Z,74.66
2023-03-06T11:40:33.494Z,76.44
2023-03-06T11:42:59.804Z,78.66
2023-03-06T11:45:26.242Z,78.01
2023-03-06T11:47:52.601Z,80.49
2023-03-06T11:50:19.016Z,82.35
2023-03-06T11:52:45.400Z,83.50
2023-03-06T11:55:11.720Z,82.23
2023-03-06T11:57:38.034Z,84.20
2023-03-06T12:00:04.391Z,85.81
2023-03-06T12:02:30.803Z,84.25
2023-03-06T12:04:57.203Z,83.80
2023-03-06T12:07:23.576Z,81.24
2023-03-06T12:09:49.898Z,80.01
2023-03-06T12:14:42.531Z,78.95
2023-03-06T12:17:08.892Z,79.92
2023-03-06T12:19:35.204Z,78.04
2023-03-06T12:22:01.771Z,78.32
2023-03-06T12:24:28.065Z,77.27
2023-03-06T12:26:54.392Z,77.03
2023-03-06T12:29:20.738Z,77.97
2023-03-06T12:31:47.200Z,76.50
2023-03-06T12:34:13.580Z,75.96
2023-03-06T12:36:39.967Z,75.76
2023-03-06T12:39:06.307Z,75.67
2023-03-06T12:41:32.631Z,73.94
2023-03-06T12:43:59.012Z,74.66
2023-03-06T12:46:25.348Z,76.58
2023-03-06T12:48:51.865Z,79.47
2023-03-06T12:51:18.210Z,79.58
2023-03-06T12:53:44.525Z,78.11
2023-03-06T12:56:10.867Z,78.59
2023-03-06T12:58:37.214Z,77.38
2023-03-06T13:01:06.040Z,78.93
2023-03-06T13:03:32.446Z,82.59
2023-03-06T13:05:58.761Z,80.93
2023-03-06T13:08:25.365Z,81.30
2023-03-06T13:10:51.710Z,81.70
2023-03-06T13:13:18.083Z,80.07
2023-03-06T13:15:45.603Z,82.51
2023-03-06T13:18:11.962Z,86.87
2023-03-06T13:20:38.588Z,90.33
2023-03-06T13:23:04.949Z,94.45
2023-03-06T13:25:32.672Z,97.78
2023-03-06T13:27:59.010Z,99.01
2023-03-06T13:30:27.233Z,100.00
2023-03-06T13:32:53.648Z,100.00
2023-03-06T13:35:20.077Z,100.00
2023-03-06T13:37:46.481Z,100.00
2023-03-06T13:40:12.794Z,100.00
2023-03-06T13:42:39.778Z,99.77
2023-03-06T13:45:06.140Z,100.00
2023-03-06T13:47:32.520Z,100.00
2023-03-06T13:49:58.861Z,100.00
2023-03-06T13:52:25.392Z,100.00
2023-03-06T13:54:51.695Z,100.00
2023-03-06T13:57:18.020Z,98.48
2023-03-06T13:59:44.320Z,97.45
2023-03-06T14:02:10.636Z,98.63
2023-03-06T14:04:36.994Z,100.00
2023-03-06T14:07:05.478Z,97.20
2023-03-06T14:09:32.532Z,96.84
2023-03-06T14:11:58.920Z,95.87
2023-03-06T14:14:25.236Z,95.20
2023-03-06T14:16:53.590Z,92.74
2023-03-06T14:19:20.101Z,88.68
2023-03-06T14:21:46.493Z,88.47
2023-03-06T14:24:12.959Z,86.30
2023-03-06T14:26:39.295Z,90.31
2023-03-06T14:29:05.613Z,87.83
2023-03-06T14:31:32.060Z,86.41
2023-03-06T14:33:58.644Z,85.96
2023-03-06T14:36:24.977Z,85.90
2023-03-06T14:38:51.311Z,86.19
2023-03-06T14:41:17.645Z,87.89
2023-03-06T14:43:43.956Z,87.31
2023-03-06T14:46:10.388Z,89.20
2023-03-06T14:48:38.572Z,88.49
2023-03-06T14:51:04.912Z,85.13
2023-03-06T14:53:31.344Z,84.64
2023-03-06T14:55:59.027Z,85.56
2023-03-06T14:58:25.339Z,85.96
2023-03-06T15:00:51.736Z,84.40
2023-03-06T15:03:18.264Z,83.86
2023-03-06T15:05:44.642Z,83.83
2023-03-06T15:08:11.266Z,84.24
2023-03-06T15:10:37.649Z,85.27
2023-03-06T15:13:03.966Z,83.36
2023-03-06T15:15:30.340Z,83.64
2023-03-06T15:17:56.726Z,83.67
2023-03-06T15:20:23.028Z,82.07
2023-03-06T15:22:49.347Z,82.11
2023-03-06T15:25:15.655Z,81.48
2023-03-06T15:27:41.967Z,82.07
2023-03-06T15:30:08.287Z,81.68
2023-03-06T15:32:34.744Z,81.50
2023-03-06T15:35:01.099Z,80.48
2023-03-06T15:37:27.681Z,79.84
2023-03-06T15:39:53.991Z,81.58
2023-03-06T15:42:20.484Z,79.91
2023-03-06T15:44:46.839Z,79.35
2023-03-06T15:47:13.163Z,79.47
2023-03-06T15:49:39.518Z,80.24
2023-03-06T15:52:05.850Z,80.10
2023-03-06T15:54:33.107Z,80.54
2023-03-06T15:56:59.550Z,79.29
2023-03-06T15:59:26.116Z,80.84
2023-03-06T16:01:52.461Z,81.23
2023-03-06T16:04:18.975Z,82.84
2023-03-06T16:06:45.935Z,81.93
2023-03-06T16:09:12.521Z,82.33
2023-03-06T16:11:44.081Z,86.22
2023-03-06T16:14:10.569Z,92.91
2023-03-06T16:16:36.960Z,99.49
2023-03-06T16:19:04.118Z,100.00
2023-03-06T16:21:31.380Z,100.00
2023-03-06T16:23:57.680Z,100.00
2023-03-06T16:26:24.006Z,100.00
2023-03-06T16:28:50.320Z,100.00
2023-03-06T16:31:16.698Z,100.00
2023-03-06T16:33:43.025Z,100.00
2023-03-06T16:36:09.382Z,100.00
2023-03-06T16:38:35.690Z,100.00
2023-03-06T16:41:01.985Z,100.00
2023-03-06T16:43:28.355Z,100.00
2023-03-06T16:45:54.753Z,100.00
2023-03-06T16:48:21.203Z,100.00
2023-03-06T16:50:47.600Z,100.00
2023-03-06T16:53:14.039Z,100.00
2023-03-06T16:55:40.352Z,100.00
2023-03-06T16:58:08.662Z,100.00
2023-03-06T17:00:34.960Z,100.00
2023-03-06T17:03:01.342Z,100.00
2023-03-06T17:05:27.963Z,100.00
2023-03-06T17:07:54.281Z,100.00
2023-03-06T17:10:22.815Z,100.00
2023-03-06T17:12:49.355Z,100.00
2023-03-06T17:15:15.801Z,100.00
2023-03-06T17:17:42.261Z,100.00
2023-03-06T17:20:08.595Z,100.00
2023-03-06T17:22:35.394Z,100.00
2023-03-06T17:25:01.752Z,100.00
2023-03-06T17:27:28.039Z,100.00
2023-03-06T17:29:54.355Z,100.00
2023-03-06T17:32:20.741Z,100.00
2023-03-06T17:34:47.066Z,99.87
2023-03-06T17:37:13.390Z,100.00
2023-03-06T17:39:39.743Z,99.65
2023-03-06T17:42:06.587Z,100.00
2023-03-06T17:44:32.919Z,100.00
2023-03-06T17:46:59.261Z,100.00
2023-03-06T17:49:25.602Z,100.00
2023-03-06T17:51:51.944Z,100.00
2023-03-06T17:54:18.345Z,100.00
2023-03-06T17:56:44.671Z,100.00
2023-03-06T17:59:11.004Z,100.00
2023-03-06T18:01:37.391Z,99.31
2023-03-06T18:04:03.931Z,100.00
2023-03-06T18:06:30.407Z,99.90
2023-03-06T18:08:56.731Z,100.00
2023-03-06T18:11:23.094Z,100.00
2023-03-06T18:13:49.417Z,99.58
2023-03-06T18:16:15.793Z,100.00
2023-03-06T18:18:42.237Z,100.00
2023-03-06T18:21:09.189Z,100.00
2023-03-06T18:23:36.150Z,99.78
2023-03-06T18:26:02.530Z,100.00
2023-03-06T18:28:30.806Z,100.00
2023-03-06T18:30:57.161Z,100.00
2023-03-06T18:33:23.470Z,100.00
2023-03-06T18:35:49.807Z,100.00
2023-03-06T18:38:16.174Z,100.00
2023-03-06T18:40:42.499Z,100.00
2023-03-06T18:43:08.874Z,100.00
2023-03-06T18:45:35.229Z,100.00
2023-03-06T18:48:01.616Z,100.00
2023-03-06T18:50:29.601Z,100.00
2023-03-06T18:52:55.927Z,100.00
2023-03-06T18:55:22.219Z,100.00
2023-03-06T18:57:48.544Z,100.00
2023-03-06T19:00:16.621Z,100.00
2023-03-06T19:02:42.938Z,100.00
2023-03-06T19:05:09.261Z,100.00
2023-03-06T19:07:35.610Z,100.00
2023-03-06T19:10:01.938Z,100.00
2023-03-06T19:12:28.256Z,100.00
2023-03-06T19:14:54.578Z,100.00
2023-03-06T19:17:20.888Z,100.00
2023-03-06T19:19:47.223Z,100.00
2023-03-06T19:22:13.526Z,100.00
2023-03-06T19:24:39.889Z,100.00
2023-03-06T19:27:06.244Z,100.00
2023-03-06T19:29:33.522Z,100.00
2023-03-06T19:32:00.028Z,100.00
2023-03-06T19:34:26.385Z,100.00
2023-03-06T19:36:52.786Z,100.00
2023-03-06T19:39:19.160Z,98.78
2023-03-06T19:41:45.473Z,98.01
2023-03-06T19:44:13.068Z,98.92
2023-03-06T19:46:40.799Z,99.26
2023-03-06T19:49:11.889Z,99.10
2023-03-06T19:51:38.215Z,97.95
2023-03-06T19:54:04.517Z,97.53
2023-03-06T19:56:31.983Z,97.36
2023-03-06T19:58:58.354Z,98.25
2023-03-06T20:01:25.127Z,98.24
2023-03-06T20:03:52.210Z,98.83
2023-03-06T20:06:18.646Z,99.61
2023-03-06T20:08:45.014Z,100.00
2023-03-06T20:11:11.363Z,100.00
2023-03-06T20:13:40.932Z,100.00
2023-03-06T20:16:11.000Z,100.00
2023-03-06T20:18:37.338Z,99.22
2023-03-06T20:21:03.730Z,98.78
2023-03-06T20:23:30.045Z,98.04
2023-03-06T20:25:56.578Z,98.88
2023-03-06T20:28:22.943Z,97.11
2023-03-06T20:30:49.477Z,97.59
2023-03-06T20:33:16.831Z,97.33
2023-03-06T20:35:43.234Z,96.59
2023-03-06T20:38:09.627Z,99.15
2023-03-06T20:40:35.956Z,98.41
2023-03-06T20:43:02.303Z,99.04
2023-03-06T20:45:28.591Z,98.53
2023-03-06T20:47:56.349Z,99.15
2023-03-06T20:50:22.658Z,97.84
2023-03-06T20:52:48.996Z,98.47
2023-03-06T20:55:15.496Z,99.22
2023-03-06T20:57:41.979Z,99.06
2023-03-06T21:00:09.154Z,98.24
2023-03-06T21:02:35.575Z,99.13
2023-03-06T21:05:03.016Z,98.65
2023-03-06T21:07:29.356Z,98.24
2023-03-06T21:09:55.704Z,98.76
2023-03-06T21:12:22.024Z,98.64
2023-03-06T21:14:48.360Z,99.09
2023-03-06T21:17:17.778Z,98.80
2023-03-06T21:19:44.380Z,97.21
2023-03-06T21:22:10.802Z,97.34
2023-03-06T21:24:37.184Z,98.13
2023-03-06T21:27:03.748Z,97.01
2023-03-06T21:29:30.057Z,95.85
2023-03-06T21:31:56.369Z,97.12
2023-03-06T21:34:22.724Z,96.95
2023-03-06T21:36:49.263Z,96.47
2023-03-06T21:39:15.734Z,96.95
2023-03-06T21:41:42.271Z,95.65
2023-03-06T21:44:08.726Z,95.38
2023-03-06T21:46:35.136Z,95.72
2023-03-06T21:49:01.474Z,95.51
2023-03-06T21:51:27.895Z,94.81
2023-03-06T21:53:54.377Z,94.22
2023-03-06T21:56:20.843Z,95.11
2023-03-06T21:58:47.352Z,94.35
2023-03-06T22:01:13.884Z,95.28
2023-03-06T22:03:40.196Z,94.78
2023-03-06T22:06:06.666Z,95.52
2023-03-06T22:08:33.903Z,96.72
2023-03-06T22:11:03.386Z,96.74
2023-03-06T22:13:29.767Z,96.53
2023-03-06T22:15:56.113Z,96.64
2023-03-06T22:18:22.435Z,95.92
2023-03-06T22:20:48.788Z,96.77
2023-03-06T22:23:15.178Z,98.42
2023-03-06T22:25:41.512Z,98.08
2023-03-06T22:28:07.851Z,98.38
2023-03-06T22:30:34.188Z,98.68
2023-03-06T22:33:00.580Z,98.41
2023-03-06T22:35:26.902Z,98.54
2023-03-06T22:37:53.296Z,98.46
2023-03-06T22:40:19.615Z,98.36
2023-03-06T22:42:45.975Z,97.68
2023-03-06T22:45:12.276Z,97.33
2023-03-06T22:47:38.594Z,97.56
2023-03-06T22:50:04.994Z,97.83
2023-03-06T22:52:31.312Z,97.19
2023-03-06T22:54:58.022Z,96.48
2023-03-06T22:57:24.341Z,96.44
2023-03-06T22:59:50.653Z,97.50
2023-03-06T23:02:16.970Z,96.80
2023-03-06T23:04:43.388Z,96.61
2023-03-06T23:07:09.860Z,96.96
2023-03-06T23:09:36.211Z,96.82
2023-03-06T23:12:02.540Z,96.63
2023-03-06T23:14:28.860Z,96.81
2023-03-06T23:16:55.195Z,97.15
2023-03-06T23:19:21.493Z,96.36
2023-03-06T23:21:47.779Z,97.00
2023-03-06T23:24:14.134Z,96.10
2023-03-06T23:26:40.798Z,95.10
2023-03-06T23:29:07.112Z,96.33
2023-03-06T23:31:33.434Z,96.25
2023-03-06T23:33:59.958Z,96.01
2023-03-06T23:36:26.251Z,94.56
2023-03-06T23:38:52.625Z,95.14
2023-03-06T23:41:18.950Z,94.68
2023-03-06T23:43:45.280Z,94.39
2023-03-06T23:46:11.655Z,94.59
2023-03-06T23:48:38.023Z,94.61
2023-03-06T23:51:04.353Z,94.54
2023-03-06T23:53:30.667Z,94.35
2023-03-06T23:55:57.363Z,93.96
2023-03-06T23:58:23.720Z,93.04
